Time;durP1;ratioP1;P1;durP2;ratioP2;P2;SDS_P1;SDS_P2;PMS_P1;PMS_P2;Temp;Humidity;BMP_temperature;BMP_pressure;BME280_temperature;BME280_humidity;BME280_pressure;Samples;Min_cycle;Max_cycle;Signal;HPM_P1;HPM_P2
2023/01/25 00:02:03;;;;;;;4.93;3.03;;;;;;;3.14;100.00;95499.72;5051483;28;20186;-57
2023/01/25 00:04:29;;;;;;;5.67;3.20;;;;;;;3.21;100.00;95513.66;5053442;28;20205;-52
2023/01/25 00:06:55;;;;;;;7.43;3.70;;;;;;;3.20;100.00;95507.81;5052181;28;20189;-54
2023/01/25 00:09:22;;;;;;;4.67;3.23;;;;;;;3.17;100.00;95502.91;5053396;28;20217;-56
2023/01/25 00:11:47;;;;;;;5.27;3.70;;;;;;;3.50;100.00;95523.25;5053143;28;20584;-53
2023/01/25 00:14:14;;;;;;;6.83;4.17;;;;;;;3.35;100.00;95519.69;5051858;28;20218;-53
2023/01/25 00:16:40;;;;;;;6.37;3.47;;;;;;;3.22;100.00;95502.72;5053204;28;20261;-55
2023/01/25 00:19:07;;;;;;;6.30;3.63;;;;;;;3.27;100.00;95501.63;5053775;28;20702;-55
2023/01/25 00:21:33;;;;;;;5.57;3.60;;;;;;;3.30;100.00;95506.53;5052118;28;20218;-53
2023/01/25 00:23:59;;;;;;;4.83;3.47;;;;;;;3.36;100.00;95538.94;5053499;28;20201;-52
2023/01/25 00:26:25;;;;;;;6.00;3.50;;;;;;;3.21;100.00;95501.88;5053163;28;20186;-51
2023/01/25 00:28:51;;;;;;;5.30;3.00;;;;;;;3.23;100.00;95522.75;5053371;28;20213;-53
2023/01/25 00:31:26;;;;;;;3.50;3.00;;;;;;;3.22;100.00;95518.59;5053157;28;20228;-55
2023/01/25 00:34:00;;;;;;;3.97;2.90;;;;;;;3.20;100.00;95501.97;5053079;28;20686;-55
2023/01/25 00:36:35;;;;;;;5.40;3.27;;;;;;;3.30;100.00;95516.59;5053251;28;20603;-55
2023/01/25 00:39:01;;;;;;;7.43;3.93;;;;;;;3.36;100.00;95505.44;5052855;28;20282;-55
2023/01/25 00:41:27;;;;;;;9.63;3.80;;;;;;;3.56;100.00;95564.91;5052845;28;20195;-54
2023/01/25 00:43:53;;;;;;;5.67;3.20;;;;;;;3.30;100.00;95536.69;5053289;28;20297;-52
2023/01/25 00:46:18;;;;;;;5.57;3.40;;;;;;;3.26;100.00;95520.09;5052784;28;20560;-55
2023/01/25 00:48:44;;;;;;;8.00;4.50;;;;;;;3.14;100.00;95524.84;5052738;28;20208;-52
2023/01/25 00:51:17;;;;;;;5.27;3.13;;;;;;;3.25;100.00;95538.56;5052955;28;20606;-56
2023/01/25 00:53:42;;;;;;;4.67;3.30;;;;;;;3.16;100.00;95513.03;5052101;28;20584;-55
2023/01/25 00:56:07;;;;;;;5.23;3.37;;;;;;;3.36;100.00;95526.38;5052376;28;20198;-54
2023/01/25 00:58:33;;;;;;;5.60;3.80;;;;;;;3.21;100.00;95524.50;5052692;28;20206;-55
2023/01/25 01:00:58;;;;;;;5.23;3.57;;;;;;;3.23;100.00;95529.47;5052733;28;20198;-54
2023/01/25 01:03:24;;;;;;;5.30;3.70;;;;;;;3.35;100.00;95527.25;5052924;28;20213;-56
2023/01/25 01:06:09;;;;;;;5.37;3.43;;;;;;;3.37;100.00;95533.00;5052566;28;20579;-54
2023/01/25 01:08:38;;;;;;;5.47;3.50;;;;;;;3.52;100.00;95513.97;5052541;28;20213;-55
2023/01/25 01:11:06;;;;;;;6.07;3.30;;;;;;;3.48;100.00;95554.34;5051043;28;20568;-53
2023/01/25 01:13:32;;;;;;;5.43;3.03;;;;;;;3.48;100.00;95555.19;5051978;28;20224;-55
2023/01/25 01:16:03;;;;;;;5.67;3.20;;;;;;;3.50;100.00;95547.56;5052124;28;20197;-56
2023/01/25 01:18:37;;;;;;;5.90;2.83;;;;;;;3.56;100.00;95558.19;5052599;28;20218;-53
2023/01/25 01:21:03;;;;;;;5.33;3.40;;;;;;;3.49;100.00;95573.59;5052243;28;20198;-55
2023/01/25 01:23:29;;;;;;;5.97;3.10;;;;;;;3.46;100.00;95592.13;5052126;28;20225;-55
2023/01/25 01:25:54;;;;;;;4.43;2.83;;;;;;;3.43;100.00;95529.44;5052294;28;20270;-52
2023/01/25 01:28:20;;;;;;;3.63;2.73;;;;;;;3.48;100.00;95561.91;5052471;28;20304;-55
2023/01/25 01:30:45;;;;;;;3.43;2.47;;;;;;;3.52;100.00;95581.81;5052056;28;20222;-53
2023/01/25 01:33:11;;;;;;;5.27;2.73;;;;;;;3.33;100.00;95581.75;5052145;28;20211;-57
2023/01/25 01:35:37;;;;;;;5.63;3.40;;;;;;;3.26;100.00;95532.66;5052107;28;20683;-55
2023/01/25 01:38:02;;;;;;;6.20;2.57;;;;;;;3.16;100.00;95518.03;5052239;28;20499;-52
2023/01/25 01:40:28;;;;;;;4.83;3.10;;;;;;;3.26;100.00;95522.63;5051947;28;20176;-55
2023/01/25 01:43:01;;;;;;;5.50;2.87;;;;;;;3.28;100.00;95550.19;5052128;28;20594;-54
2023/01/25 01:45:48;;;;;;;5.17;2.40;;;;;;;3.22;100.00;95533.69;5052046;28;20263;-53
2023/01/25 01:48:34;;;;;;;4.03;2.70;;;;;;;3.06;100.00;95562.00;5051808;28;20216;-53
2023/01/25 01:51:07;;;;;;;4.07;2.90;;;;;;;3.03;100.00;95542.84;5044254;28;20244;-53
2023/01/25 01:53:33;;;;;;;3.60;2.43;;;;;;;2.96;100.00;95523.91;5051987;28;20229;-56
2023/01/25 01:56:03;;;;;;;4.17;2.57;;;;;;;3.04;100.00;95516.06;5051683;28;20205;-53
2023/01/25 01:58:30;;;;;;;3.17;2.17;;;;;;;2.92;100.00;95487.25;5052010;28;20770;-53
2023/01/25 02:00:56;;;;;;;2.37;2.13;;;;;;;2.94;100.00;95508.09;5051653;28;20198;-54
2023/01/25 02:03:22;;;;;;;2.73;1.93;;;;;;;2.89;100.00;95534.28;5051913;28;20226;-54
2023/01/25 02:05:53;;;;;;;2.37;1.50;;;;;;;2.81;100.00;95541.31;5051549;28;20204;-53
2023/01/25 02:08:20;;;;;;;5.03;2.17;;;;;;;2.79;100.00;95531.28;5051665;28;20221;-55
2023/01/25 02:10:47;;;;;;;2.50;1.80;;;;;;;2.73;100.00;95511.47;5051441;28;20211;-53
2023/01/25 02:13:13;;;;;;;3.60;2.10;;;;;;;2.52;100.00;95470.47;5050229;28;20242;-56
2023/01/25 02:15:50;;;;;;;3.53;2.10;;;;;;;2.51;100.00;95503.16;5051489;28;20210;-52
2023/01/25 02:18:18;;;;;;;2.70;1.90;;;;;;;2.43;100.00;95492.63;5051807;28;20219;-57
2023/01/25 02:20:46;;;;;;;3.13;2.07;;;;;;;2.61;100.00;95488.59;5051300;28;20274;-53
2023/01/25 02:23:42;;;;;;;1.97;1.73;;;;;;;2.59;100.00;95501.16;5051296;28;20208;-52
2023/01/25 02:26:08;;;;;;;2.63;1.90;;;;;;;2.52;100.00;95494.78;5050923;28;20197;-55
2023/01/25 02:28:41;;;;;;;2.90;1.80;;;;;;;2.69;100.00;95521.72;5051298;28;20217;-56
2023/01/25 02:31:06;;;;;;;3.03;2.00;;;;;;;2.71;100.00;95518.25;5051377;28;20209;-52
2023/01/25 02:33:32;;;;;;;3.97;2.00;;;;;;;2.59;100.00;95520.44;5051020;28;20789;-53
2023/01/25 02:36:06;;;;;;;3.67;1.80;;;;;;;2.74;100.00;95485.50;5051417;28;20614;-59
2023/01/25 02:38:40;;;;;;;1.90;1.50;;;;;;;2.67;100.00;95484.09;5051319;28;20225;-57
2023/01/25 02:41:17;;;;;;;7.20;2.03;;;;;;;2.78;100.00;95494.53;5049665;28;20228;-55
2023/01/25 02:43:43;;;;;;;3.33;1.90;;;;;;;2.89;100.00;95501.63;5051205;28;20226;-55
2023/01/25 02:46:28;;;;;;;2.83;2.20;;;;;;;2.83;100.00;95507.69;5050963;28;20265;-56
2023/01/25 02:48:54;;;;;;;4.23;2.53;;;;;;;2.64;100.00;95454.13;5050985;28;20301;-56
2023/01/25 02:51:22;;;;;;;3.27;1.83;;;;;;;3.01;100.00;95481.03;5050943;28;20203;-57
2023/01/25 02:53:47;;;;;;;2.80;1.90;;;;;;;2.95;100.00;95496.34;5050979;28;20601;-52
2023/01/25 02:56:13;;;;;;;2.37;1.67;;;;;;;2.94;100.00;95504.75;5050829;28;20201;-53
2023/01/25 02:58:39;;;;;;;5.27;2.73;;;;;;;3.05;100.00;95495.09;5050976;28;20226;-59
2023/01/25 03:01:04;;;;;;;3.27;2.00;;;;;;;3.00;100.00;95524.59;5049492;28;20684;-54
2023/01/25 03:03:29;;;;;;;3.23;2.27;;;;;;;3.00;100.00;95537.16;5050974;28;20757;-55
2023/01/25 03:05:55;;;;;;;4.13;2.33;;;;;;;3.13;100.00;95563.41;5050928;28;20651;-55
2023/01/25 03:08:21;;;;;;;3.00;2.10;;;;;;;2.98;100.00;95489.50;5050601;28;20227;-55
2023/01/25 03:10:46;;;;;;;2.60;1.90;;;;;;;3.08;100.00;95522.56;5050790;28;20582;-54
2023/01/25 03:13:11;;;;;;;2.27;1.90;;;;;;;3.10;100.00;95559.31;5050909;28;20297;-56
2023/01/25 03:15:37;;;;;;;2.40;1.70;;;;;;;2.92;100.00;95572.63;5050758;28;20185;-53
2023/01/25 03:18:02;;;;;;;5.60;2.30;;;;;;;2.80;100.00;95542.16;5050879;28;20558;-53
2023/01/25 03:20:28;;;;;;;3.60;2.20;;;;;;;2.86;100.00;95542.75;5050799;28;20211;-53
2023/01/25 03:22:54;;;;;;;4.47;2.67;;;;;;;2.56;100.00;95497.09;5050824;28;20577;-53
2023/01/25 03:25:19;;;;;;;4.67;2.90;;;;;;;2.47;100.00;95494.13;5050788;28;20187;-53
2023/01/25 03:27:45;;;;;;;4.57;2.30;;;;;;;2.39;100.00;95488.59;5050580;28;20276;-55
2023/01/25 03:30:11;;;;;;;2.43;1.97;;;;;;;2.27;100.00;95497.44;5050494;28;20205;-55
2023/01/25 03:32:37;;;;;;;2.63;2.00;;;;;;;2.37;100.00;95495.38;5050706;28;20209;-55
2023/01/25 03:35:03;;;;;;;3.00;2.30;;;;;;;2.23;100.00;95482.56;5050530;28;20194;-55
2023/01/25 03:37:30;;;;;;;3.97;2.30;;;;;;;2.37;100.00;95488.66;5053841;28;20576;-56
2023/01/25 03:39:56;;;;;;;3.50;2.17;;;;;;;2.45;100.00;95483.34;5054115;28;20185;-53
2023/01/25 03:42:23;;;;;;;2.57;2.03;;;;;;;2.58;100.00;95486.19;5054008;28;20204;-56
2023/01/25 03:44:48;;;;;;;3.10;1.87;;;;;;;2.58;100.00;95478.66;5053809;28;20290;-56
2023/01/25 03:47:15;;;;;;;3.63;2.10;;;;;;;2.70;100.00;95496.53;5053552;28;20229;-57
2023/01/25 03:49:40;;;;;;;4.57;2.40;;;;;;;2.66;100.00;95505.09;5069165;28;20195;-55
2023/01/25 03:52:06;;;;;;;3.03;2.10;;;;;;;2.75;100.00;95508.91;5053665;28;20616;-53
2023/01/25 03:54:32;;;;;;;3.07;2.07;;;;;;;2.61;100.00;95529.53;5053815;28;20619;-56
2023/01/25 03:56:57;;;;;;;4.37;3.00;;;;;;;2.61;100.00;95518.69;5068859;28;20198;-55
2023/01/25 03:59:23;;;;;;;3.93;2.63;;;;;;;2.58;100.00;95489.50;5053671;28;20205;-53
2023/01/25 04:01:48;;;;;;;3.57;2.40;;;;;;;2.62;100.00;95482.66;5053421;28;20185;-56
2023/01/25 04:04:14;;;;;;;3.00;2.50;;;;;;;2.64;100.00;95476.72;5053751;28;20213;-55
2023/01/25 04:06:39;;;;;;;2.17;1.60;;;;;;;2.68;100.00;95495.78;5053690;28;20249;-57
2023/01/25 04:09:05;;;;;;;3.17;2.20;;;;;;;2.67;100.00;95484.09;5053824;28;20675;-52
2023/01/25 04:11:31;;;;;;;4.10;2.53;;;;;;;2.71;100.00;95500.69;5053335;28;20244;-53
2023/01/25 04:13:56;;;;;;;2.60;2.07;;;;;;;2.67;100.00;95516.72;5053493;28;20220;-55
2023/01/25 04:16:22;;;;;;;2.47;1.70;;;;;;;2.81;100.00;95501.94;5053110;28;20193;-53
2023/01/25 04:18:47;;;;;;;5.17;1.90;;;;;;;2.74;100.00;95505.59;5053125;28;20593;-52
2023/01/25 04:21:12;;;;;;;3.97;2.40;;;;;;;2.83;100.00;95517.75;5053258;28;20182;-53
2023/01/25 04:23:38;;;;;;;3.60;2.10;;;;;;;2.70;100.00;95505.75;5053250;28;20214;-54
2023/01/25 04:26:06;;;;;;;3.40;2.60;;;;;;;2.84;100.00;95506.00;5053309;28;20186;-56
2023/01/25 04:28:32;;;;;;;2.73;2.00;;;;;;;2.85;100.00;95502.63;5053430;28;20707;-53
2023/01/25 04:30:58;;;;;;;3.93;2.73;;;;;;;2.82;100.00;95522.84;5053019;28;20298;-55
2023/01/25 04:33:24;;;;;;;2.27;2.07;;;;;;;2.82;100.00;95521.16;5053165;28;20255;-55
2023/01/25 04:35:49;;;;;;;3.30;2.23;;;;;;;2.73;100.00;95563.38;5052933;28;20595;-52
2023/01/25 04:38:15;;;;;;;2.93;2.27;;;;;;;2.83;100.00;95575.47;5052973;28;20228;-53
2023/01/25 04:40:41;;;;;;;19.50;10.67;;;;;;;2.73;100.00;95563.38;5053046;28;20189;-57
2023/01/25 04:43:07;;;;;;;2.70;1.90;;;;;;;2.47;100.00;95532.59;5068399;28;20228;-55
2023/01/25 04:45:34;;;;;;;2.87;1.70;;;;;;;2.63;100.00;95497.66;5053181;28;20608;-54
2023/01/25 04:48:03;;;;;;;2.43;2.07;;;;;;;2.53;100.00;95546.59;5051923;28;20224;-54
2023/01/25 04:50:29;;;;;;;2.60;1.93;;;;;;;2.45;100.00;95536.84;5052947;28;20752;-56
2023/01/25 04:52:54;;;;;;;5.60;3.83;;;;;;;2.61;100.00;95456.75;5052783;28;20224;-55
2023/01/25 04:55:20;;;;;;;4.20;2.63;;;;;;;2.87;100.00;95475.78;5052640;28;20201;-57
2023/01/25 04:57:50;;;;;;;3.57;2.17;;;;;;;3.01;100.00;95481.03;5052938;28;20217;-53
2023/01/25 05:00:17;;;;;;;4.43;1.80;;;;;;;3.38;100.00;95489.44;5052344;28;20196;-54
2023/01/25 05:02:42;;;;;;;2.63;1.57;;;;;;;3.17;100.00;95555.66;5052683;28;20623;-56
2023/01/25 05:05:09;;;;;;;3.07;1.90;;;;;;;2.93;100.00;95571.72;5052229;28;20204;-56
2023/01/25 05:07:35;;;;;;;2.97;2.00;;;;;;;2.86;100.00;95595.47;5052331;28;20213;-57
2023/01/25 05:10:00;;;;;;;20.70;12.67;;;;;;;2.59;100.00;95550.56;5052246;28;20228;-57
2023/01/25 05:12:26;;;;;;;9.27;5.07;;;;;;;2.61;100.00;95566.38;5052414;28;20213;-57
2023/01/25 05:14:51;;;;;;;5.50;2.50;;;;;;;2.54;100.00;95550.75;5052255;28;20189;-55
2023/01/25 05:17:17;;;;;;;3.07;1.63;;;;;;;2.66;100.00;95561.97;5052172;28;20181;-56
2023/01/25 05:19:44;;;;;;;4.47;2.60;;;;;;;2.67;100.00;95571.16;5052282;28;20228;-56
2023/01/25 05:22:17;;;;;;;2.60;1.90;;;;;;;2.79;100.00;95579.00;5050799;28;20186;-56
2023/01/25 05:24:44;;;;;;;10.33;6.00;;;;;;;2.77;100.00;95587.50;5067572;28;20195;-57
2023/01/25 05:27:13;;;;;;;3.37;2.27;;;;;;;2.74;100.00;95578.38;5052090;28;20200;-56
2023/01/25 05:29:40;;;;;;;12.70;7.70;;;;;;;2.45;100.00;95528.50;5052096;28;20201;-57
2023/01/25 05:32:17;;;;;;;2.23;1.80;;;;;;;2.62;100.00;95553.75;5052185;28;20269;-56
2023/01/25 05:34:43;;;;;;;2.97;1.70;;;;;;;2.73;100.00;95566.69;5051971;28;20190;-57
2023/01/25 05:37:11;;;;;;;2.10;1.70;;;;;;;2.77;100.00;95590.00;5051832;28;20273;-58
2023/01/25 05:39:36;;;;;;;4.07;2.13;;;;;;;2.78;100.00;95569.03;5050815;28;20198;-56
2023/01/25 05:42:02;;;;;;;7.37;2.30;;;;;;;2.78;100.00;95547.25;5051937;28;20244;-56
2023/01/25 05:44:27;;;;;;;2.83;2.00;;;;;;;2.74;100.00;95575.88;5067533;28;20274;-55
2023/01/25 05:46:53;;;;;;;2.97;1.57;;;;;;;2.77;100.00;95574.94;5051799;28;20265;-57
2023/01/25 05:49:19;;;;;;;4.30;1.90;;;;;;;2.66;100.00;95564.50;5051734;28;20699;-55
2023/01/25 05:51:45;;;;;;;3.03;1.67;;;;;;;2.74;100.00;95595.13;5051571;28;20235;-57
2023/01/25 05:54:14;;;;;;;2.40;1.80;;;;;;;2.74;100.00;95588.41;5051682;28;20221;-56
2023/01/25 05:56:39;;;;;;;2.00;1.50;;;;;;;3.00;100.00;95568.09;5051723;28;20678;-56
2023/01/25 05:59:05;;;;;;;3.10;1.63;;;;;;;3.04;100.00;95627.38;5049225;28;20210;-55
2023/01/25 06:01:31;;;;;;;2.53;1.77;;;;;;;3.19;100.00;95618.41;5050210;28;20186;-55
2023/01/25 06:03:56;;;;;;;2.60;1.87;;;;;;;3.22;100.00;95625.81;5051207;28;20668;-55
2023/01/25 06:06:22;;;;;;;2.50;2.00;;;;;;;3.22;100.00;95624.13;5049935;28;20208;-56
2023/01/25 06:08:48;;;;;;;2.63;1.90;;;;;;;3.33;100.00;95646.31;5049230;28;20218;-56
2023/01/25 06:11:17;;;;;;;2.80;1.73;;;;;;;3.08;100.00;95623.84;5051504;28;20256;-56
2023/01/25 06:13:43;;;;;;;3.30;1.77;;;;;;;2.97;100.00;95592.53;5051419;28;20261;-57
2023/01/25 06:16:08;;;;;;;3.67;2.50;;;;;;;2.92;100.00;95592.72;5051383;28;20185;-56
2023/01/25 06:18:35;;;;;;;3.13;2.03;;;;;;;2.88;100.00;95588.69;5050956;28;20774;-56
2023/01/25 06:21:02;;;;;;;3.30;2.40;;;;;;;3.07;100.00;95558.63;5051161;28;20178;-57
2023/01/25 06:23:27;;;;;;;2.70;2.10;;;;;;;3.04;100.00;95562.06;5051545;28;20315;-56
2023/01/25 06:26:00;;;;;;;2.80;2.50;;;;;;;3.04;100.00;95559.56;5051166;28;20685;-56
2023/01/25 06:28:28;;;;;;;4.33;2.80;;;;;;;2.93;100.00;95608.59;5051265;28;20209;-55
2023/01/25 06:30:54;;;;;;;4.07;2.90;;;;;;;2.81;100.00;95616.63;5051009;28;20292;-58
2023/01/25 06:33:19;;;;;;;3.80;2.63;;;;;;;2.86;100.00;95625.59;5051028;28;20284;-57
2023/01/25 06:35:45;;;;;;;4.60;3.57;;;;;;;2.79;100.00;95596.56;5050976;28;20189;-54
2023/01/25 06:38:11;;;;;;;8.37;5.57;;;;;;;2.81;100.00;95589.00;5049423;28;20279;-55
2023/01/25 06:40:37;;;;;;;4.97;3.10;;;;;;;2.69;100.00;95609.56;5051368;28;20607;-55
2023/01/25 06:43:08;;;;;;;4.57;2.70;;;;;;;2.62;100.00;95573.84;5049576;28;20713;-53
2023/01/25 06:45:34;;;;;;;3.87;2.97;;;;;;;2.74;100.00;95578.38;5048016;28;20192;-55
2023/01/25 06:48:00;;;;;;;4.00;3.03;;;;;;;2.74;100.00;95560.81;5051035;28;20197;-55
2023/01/25 06:50:26;;;;;;;2.97;2.50;;;;;;;2.47;100.00;95555.19;5050836;28;20232;-56
2023/01/25 06:52:53;;;;;;;4.70;3.03;;;;;;;2.46;100.00;95527.63;5050988;28;20223;-53
2023/01/25 06:55:19;;;;;;;6.43;2.60;;;;;;;2.36;100.00;95508.81;5050974;28;20189;-54
2023/01/25 06:57:45;;;;;;;4.33;2.80;;;;;;;2.43;100.00;95505.16;5051110;28;20297;-56
2023/01/25 07:00:12;;;;;;;4.10;2.47;;;;;;;2.69;100.00;95534.25;5050815;28;20283;-55
2023/01/25 07:02:37;;;;;;;5.07;3.23;;;;;;;2.67;100.00;95539.31;5050577;28;20213;-55
2023/01/25 07:05:03;;;;;;;5.90;3.00;;;;;;;2.80;100.00;95552.22;5050877;28;20189;-58
2023/01/25 07:07:28;;;;;;;7.77;3.50;;;;;;;2.70;100.00;95551.75;5050877;28;20258;-54
2023/01/25 07:09:55;;;;;;;4.20;2.93;;;;;;;2.69;100.00;95525.00;5049102;28;20181;-54
2023/01/25 07:12:21;;;;;;;3.03;2.63;;;;;;;2.85;100.00;95566.19;5053023;28;20659;-56
2023/01/25 07:14:48;;;;;;;6.53;3.27;;;;;;;2.93;100.00;95568.41;5054133;28;20187;-54
2023/01/25 07:17:14;;;;;;;4.63;3.37;;;;;;;3.03;100.00;95602.31;5054285;28;20170;-55
2023/01/25 07:19:39;;;;;;;4.50;2.60;;;;;;;2.76;100.00;95558.22;5054553;28;20190;-55
2023/01/25 07:22:05;;;;;;;7.13;3.13;;;;;;;2.74;100.00;95580.06;5053939;28;20192;-57
2023/01/25 07:24:30;;;;;;;4.50;2.97;;;;;;;2.71;100.00;95577.69;5054042;28;20210;-56
2023/01/25 07:26:56;;;;;;;6.07;3.50;;;;;;;2.72;100.00;95579.31;5053896;28;20773;-57
2023/01/25 07:29:22;;;;;;;7.27;3.73;;;;;;;2.58;100.00;95562.28;5054725;28;20217;-56
2023/01/25 07:31:47;;;;;;;8.03;3.77;;;;;;;2.43;100.00;95537.78;5053901;28;20570;-56
2023/01/25 07:34:13;;;;;;;6.33;3.30;;;;;;;2.59;100.00;95565.63;5054062;28;20217;-56
2023/01/25 07:36:39;;;;;;;4.83;3.43;;;;;;;2.53;100.00;95544.06;5054092;28;20201;-55
2023/01/25 07:39:08;;;;;;;6.07;3.70;;;;;;;2.54;100.00;95530.66;5053907;28;20220;-52
2023/01/25 07:41:34;;;;;;;5.73;3.80;;;;;;;2.46;100.00;95510.88;5053753;28;20571;-56
2023/01/25 07:43:59;;;;;;;5.97;4.00;;;;;;;2.70;100.00;95525.84;5053853;28;20205;-54
2023/01/25 07:46:25;;;;;;;4.87;3.50;;;;;;;2.55;100.00;95555.69;5053799;28;20190;-53
2023/01/25 07:48:52;;;;;;;7.30;4.20;;;;;;;2.67;100.00;95549.34;5053500;28;20236;-53
2023/01/25 07:51:25;;;;;;;7.90;3.77;;;;;;;2.60;100.00;95539.63;5053837;28;20213;-54
2023/01/25 07:54:02;;;;;;;8.23;4.77;;;;;;;2.46;100.00;95505.84;5052570;28;20229;-53
2023/01/25 07:56:30;;;;;;;9.20;4.47;;;;;;;2.72;100.00;95497.31;5053682;28;20185;-54
2023/01/25 07:58:57;;;;;;;7.80;4.03;;;;;;;2.83;100.00;95547.06;5053801;28;20240;-54
2023/01/25 08:01:25;;;;;;;5.37;3.87;;;;;;;2.80;100.00;95570.59;5052464;28;20193;-54
2023/01/25 08:03:51;;;;;;;6.37;3.90;;;;;;;2.75;100.00;95529.78;5053913;28;20292;-53
2023/01/25 08:06:21;;;;;;;6.70;4.03;;;;;;;2.71;100.00;95557.59;5053681;28;20186;-54
2023/01/25 08:08:48;;;;;;;5.90;3.83;;;;;;;2.61;100.00;95529.53;5053472;28;20216;-55
2023/01/25 08:11:19;;;;;;;8.00;4.63;;;;;;;2.79;100.00;95493.66;5053084;28;20628;-54
2023/01/25 08:13:45;;;;;;;9.10;4.53;;;;;;;2.84;100.00;95511.84;5053626;28;20304;-54
2023/01/25 08:16:15;;;;;;;6.97;4.07;;;;;;;2.80;100.00;95505.34;5053206;28;20198;-54
2023/01/25 08:18:41;;;;;;;5.93;4.33;;;;;;;2.90;100.00;95544.25;5053706;28;20274;-54
2023/01/25 08:21:06;;;;;;;5.63;3.90;;;;;;;2.85;100.00;95555.38;5053469;28;20639;-54
2023/01/25 08:23:31;;;;;;;11.03;4.37;;;;;;;2.89;100.00;95509.97;5052181;28;20622;-55
2023/01/25 08:26:01;;;;;;;5.87;3.93;;;;;;;2.90;100.00;95554.28;5053627;28;20560;-55
2023/01/25 08:28:27;;;;;;;6.63;4.50;;;;;;;2.84;100.00;95516.06;5053334;28;20263;-54
2023/01/25 08:30:52;;;;;;;7.07;4.60;;;;;;;2.86;100.00;95485.00;5053161;28;20214;-56
2023/01/25 08:33:18;;;;;;;6.00;4.17;;;;;;;3.00;100.00;95507.00;5053211;28;20235;-56
2023/01/25 08:35:53;;;;;;;6.13;4.80;;;;;;;3.08;100.00;95533.44;5052923;28;20227;-56
2023/01/25 08:38:18;;;;;;;9.20;4.70;;;;;;;3.14;100.00;95512.28;5053102;28;20228;-56
2023/01/25 08:40:44;;;;;;;8.07;4.60;;;;;;;3.05;100.00;95543.59;5053170;28;20219;-54
2023/01/25 08:43:09;;;;;;;6.60;4.33;;;;;;;3.16;100.00;95508.81;5052947;28;20722;-56
2023/01/25 08:45:35;;;;;;;5.73;4.03;;;;;;;3.19;100.00;95502.88;5052715;28;20648;-56
2023/01/25 08:48:04;;;;;;;6.57;4.70;;;;;;;3.18;100.00;95522.13;5052807;28;20222;-59
2023/01/25 08:50:29;;;;;;;9.20;5.40;;;;;;;3.16;100.00;95486.22;5052624;28;20214;-56
2023/01/25 08:53:02;;;;;;;7.30;5.23;;;;;;;3.17;100.00;95490.34;5052655;28;20584;-53
2023/01/25 08:55:27;;;;;;;6.40;4.60;;;;;;;3.30;100.00;95533.34;5051980;28;20676;-57
2023/01/25 08:57:52;;;;;;;6.17;4.47;;;;;;;3.06;100.00;95489.19;5052725;28;20266;-56
2023/01/25 09:00:18;;;;;;;6.90;4.73;;;;;;;3.16;100.00;95525.59;5052840;28;20192;-57
2023/01/25 09:02:44;;;;;;;7.40;5.03;;;;;;;3.19;100.00;95525.47;5053297;28;20225;-52
2023/01/25 09:05:09;;;;;;;6.57;4.83;;;;;;;3.20;100.00;95517.84;5052600;28;20182;-53
2023/01/25 09:07:37;;;;;;;8.27;4.97;;;;;;;3.37;100.00;95520.44;5052448;28;20579;-54
2023/01/25 09:10:07;;;;;;;10.83;6.10;;;;;;;3.38;100.00;95496.97;5053047;28;20175;-55
2023/01/25 09:12:34;;;;;;;8.03;5.00;;;;;;;3.30;100.00;95481.41;5052412;28;20205;-55
2023/01/25 09:14:59;;;;;;;5.33;4.20;;;;;;;3.28;100.00;95495.75;5052900;28;20196;-56
2023/01/25 09:17:24;;;;;;;9.20;5.00;;;;;;;3.07;100.00;95480.78;5052542;28;20660;-56
2023/01/25 09:19:50;;;;;;;7.47;4.43;;;;;;;3.33;100.00;95511.41;5051266;28;20187;-56
2023/01/25 09:22:15;;;;;;;7.77;5.00;;;;;;;3.39;100.00;95510.38;5052247;28;20220;-58
2023/01/25 09:24:41;;;;;;;10.37;5.10;;;;;;;3.43;100.00;95477.47;5052483;28;20210;-57
2023/01/25 09:27:06;;;;;;;7.97;5.47;;;;;;;3.39;100.00;95457.59;5052321;28;20583;-56
2023/01/25 09:29:31;;;;;;;12.73;5.77;;;;;;;3.61;100.00;95485.91;5051012;28;20190;-56
2023/01/25 09:31:57;;;;;;;11.97;6.10;;;;;;;3.55;100.00;95498.75;5052705;28;20221;-55
2023/01/25 09:34:22;;;;;;;9.33;4.67;;;;;;;3.64;100.00;95508.38;5052342;28;20221;-53
2023/01/25 09:36:48;;;;;;;7.77;4.57;;;;;;;3.55;100.00;95486.19;5052365;28;20211;-55
2023/01/25 09:39:13;;;;;;;4.80;3.77;;;;;;;3.68;100.00;95534.19;5052266;28;20641;-54
2023/01/25 09:42:12;;;;;;;5.20;3.90;;;;;;;3.54;100.00;95518.91;5052027;28;20679;-53
2023/01/25 09:44:56;;;;;;;4.90;3.77;;;;;;;3.62;100.00;95505.13;5029717;28;20217;-55
2023/01/25 09:47:52;;;;;;;4.57;3.37;;;;;;;3.59;100.00;95506.97;5051889;28;20186;-54
2023/01/25 09:50:17;;;;;;;5.50;3.83;;;;;;;3.71;100.00;95461.19;5052539;28;20211;-56
2023/01/25 09:53:04;;;;;;;5.70;4.17;;;;;;;3.78;100.00;95510.28;5052288;28;20780;-54
2023/01/25 09:55:32;;;;;;;7.30;3.50;;;;;;;3.69;100.00;95509.03;5051917;28;20194;-54
2023/01/25 09:58:02;;;;;;;5.57;4.07;;;;;;;3.61;100.00;95511.06;5051988;28;20226;-57
2023/01/25 10:00:44;;;;;;;5.80;4.00;;;;;;;3.73;100.00;95499.63;5050554;28;20255;-57
2023/01/25 10:03:24;;;;;;;5.40;3.90;;;;;;;3.83;100.00;95495.81;5051505;28;20217;-56
2023/01/25 10:05:53;;;;;;;5.20;3.87;;;;;;;3.98;100.00;95472.50;5051896;28;20583;-53
2023/01/25 10:08:57;;;;;;;10.17;4.20;;;;;;;4.22;100.00;95509.91;5051886;28;20218;-53
2023/01/25 10:11:28;;;;;;;6.10;4.00;;;;;;;4.26;100.00;95565.97;5009714;28;20302;-53
2023/01/25 10:13:55;;;;;;;6.67;4.17;;;;;;;4.14;100.00;95579.09;5009496;28;20764;-53
2023/01/25 10:16:36;;;;;;;6.40;4.37;;;;;;;4.08;100.00;95529.06;5030817;28;20265;-53
2023/01/25 10:19:17;;;;;;;6.50;3.93;;;;;;;4.21;100.00;95543.50;5051434;28;20213;-58
2023/01/25 10:21:47;;;;;;;5.67;4.13;;;;;;;4.20;100.00;95536.03;5051524;28;20196;-56
2023/01/25 10:24:21;;;;;;;5.57;3.90;;;;;;;4.15;100.00;95517.81;5051284;28;20217;-55
2023/01/25 10:26:55;;;;;;;5.47;3.97;;;;;;;4.05;100.00;95481.38;5051328;28;20225;-53
2023/01/25 10:29:28;;;;;;;5.97;4.30;;;;;;;4.23;100.00;95520.78;5051700;28;20243;-54
2023/01/25 10:32:13;;;;;;;4.97;3.50;;;;;;;4.20;100.00;95536.84;5051395;28;20215;-56
2023/01/25 10:34:45;;;;;;;6.73;3.80;;;;;;;4.28;100.00;95526.44;5051585;28;20205;-54
2023/01/25 10:37:19;;;;;;;4.13;3.07;;;;;;;4.35;100.00;95560.50;5051022;28;20227;-54
2023/01/25 10:40:11;;;;;;;6.63;3.30;;;;;;;4.34;100.00;95584.03;5049921;28;20277;-56
2023/01/25 10:42:45;;;;;;;7.43;2.83;;;;;;;4.32;100.00;95613.50;5049606;28;20254;-54
2023/01/25 10:45:12;;;;;;;3.43;3.10;;;;;;;4.14;100.00;95549.69;5051784;28;20169;-54
2023/01/25 10:47:43;;;;;;;6.43;3.30;;;;;;;4.23;100.00;95556.84;5051219;28;20566;-55
2023/01/25 10:50:09;;;;;;;6.77;3.63;;;;;;;4.45;100.00;95541.56;5066421;28;20283;-55
2023/01/25 10:52:36;;;;;;;5.03;3.30;;;;;;;4.44;100.00;95565.13;5050854;28;20223;-54
2023/01/25 10:55:13;;;;;;;6.30;2.97;;;;;;;4.51;100.00;95532.91;5051009;28;20205;-54
2023/01/25 10:57:50;;;;;;;7.07;3.53;;;;;;;4.35;100.00;95525.25;5050879;28;20216;-55
2023/01/25 11:00:22;;;;;;;5.70;3.50;;;;;;;4.46;100.00;95520.53;5051039;28;20211;-53
2023/01/25 11:02:47;;;;;;;4.30;2.70;;;;;;;4.56;100.00;95579.66;5050940;28;20587;-53
2023/01/25 11:05:25;;;;;;;5.27;3.17;;;;;;;4.68;100.00;95538.78;5050759;28;20200;-56
2023/01/25 11:07:51;;;;;;;6.30;2.83;;;;;;;4.59;100.00;95587.03;5050825;28;20277;-56
2023/01/25 11:10:35;;;;;;;3.03;2.63;;;;;;;4.61;100.00;95579.41;5049369;28;20213;-56
2023/01/25 11:13:18;;;;;;;4.07;2.73;;;;;;;4.73;100.00;95594.78;5050897;28;20223;-59
2023/01/25 11:16:21;;;;;;;4.70;3.50;;;;;;;4.78;100.00;95557.59;5050742;28;20199;-54
2023/01/25 11:18:53;;;;;;;4.07;3.60;;;;;;;4.80;100.00;95580.19;5048509;28;20258;-53
2023/01/25 11:21:27;;;;;;;5.20;3.60;;;;;;;4.75;100.00;95585.44;5050734;28;20200;-54
2023/01/25 11:23:58;;;;;;;7.77;3.43;;;;;;;4.64;100.00;95552.41;5050823;28;20238;-54
2023/01/25 11:26:24;;;;;;;3.63;3.23;;;;;;;4.65;100.00;95551.50;5050799;28;20201;-53
2023/01/25 11:28:49;;;;;;;6.20;4.43;;;;;;;4.62;100.00;95558.41;5050441;28;20609;-53
2023/01/25 11:31:25;;;;;;;3.70;3.23;;;;;;;4.66;100.00;95540.56;5049035;28;20690;-54
2023/01/25 11:33:50;;;;;;;3.73;2.67;;;;;;;4.72;100.00;95540.28;5050380;28;20278;-53
2023/01/25 11:36:15;;;;;;;3.23;2.93;;;;;;;4.61;100.00;95572.69;5050448;28;20190;-52
2023/01/25 11:39:18;;;;;;;5.53;3.40;;;;;;;4.50;100.00;95533.78;5050726;28;20218;-53
2023/01/25 11:41:44;;;;;;;4.73;3.37;;;;;;;4.61;100.00;95512.25;5050378;28;20208;-53